sensor_id;sensor_type;location;lat;lon;timestamp;P1;durP1;ratioP1;P2;durP2;ratioP2
40981;SDS011;26708;50.304;19.028;2022-10-04T00:07:25;8.02;;;2.50;;
40981;SDS011;26708;50.304;19.028;2022-10-04T00:10:32;5.57;;;1.90;;
40981;SDS011;26708;50.304;19.028;2022-10-04T00:13:34;12.30;;;2.22;;
40981;SDS011;26708;50.304;19.028;2022-10-04T00:16:38;7.18;;;2.15;;
40981;SDS011;26708;50.304;19.028;2022-10-04T00:19:42;7.75;;;2.15;;
40981;SDS011;26708;50.304;19.028;2022-10-04T00:29:37;7.35;;;2.50;;
40981;SDS011;26708;50.304;19.028;2022-10-04T00:32:45;9.20;;;2.20;;
40981;SDS011;26708;50.304;19.028;2022-10-04T00:35:58;4.50;;;1.67;;
40981;SDS011;26708;50.304;19.028;2022-10-04T00:42:21;7.47;;;2.55;;
40981;SDS011;26708;50.304;19.028;2022-10-04T00:45:35;6.85;;;1.80;;
40981;SDS011;26708;50.304;19.028;2022-10-04T00:48:45;10.10;;;2.13;;
40981;SDS011;26708;50.304;19.028;2022-10-04T00:51:58;7.43;;;1.80;;
40981;SDS011;26708;50.304;19.028;2022-10-04T00:55:05;8.35;;;2.40;;
40981;SDS011;26708;50.304;19.028;2022-10-04T00:58:17;6.60;;;1.95;;
40981;SDS011;26708;50.304;19.028;2022-10-04T01:01:25;10.80;;;3.03;;
40981;SDS011;26708;50.304;19.028;2022-10-04T01:04:41;8.88;;;2.50;;
40981;SDS011;26708;50.304;19.028;2022-10-04T01:08:08;12.53;;;2.03;;
40981;SDS011;26708;50.304;19.028;2022-10-04T01:11:33;6.15;;;2.05;;
40981;SDS011;26708;50.304;19.028;2022-10-04T01:14:46;11.73;;;2.55;;
40981;SDS011;26708;50.304;19.028;2022-10-04T01:21:27;6.93;;;2.03;;
40981;SDS011;26708;50.304;19.028;2022-10-04T01:24:34;8.05;;;2.42;;
40981;SDS011;26708;50.304;19.028;2022-10-04T01:27:41;7.88;;;1.98;;
40981;SDS011;26708;50.304;19.028;2022-10-04T01:30:43;11.00;;;2.00;;
40981;SDS011;26708;50.304;19.028;2022-10-04T01:33:44;11.85;;;2.35;;
40981;SDS011;26708;50.304;19.028;2022-10-04T01:36:46;7.78;;;2.30;;
40981;SDS011;26708;50.304;19.028;2022-10-04T01:39:48;10.40;;;2.00;;
40981;SDS011;26708;50.304;19.028;2022-10-04T01:42:50;9.82;;;1.85;;
40981;SDS011;26708;50.304;19.028;2022-10-04T01:46:01;6.88;;;1.60;;
40981;SDS011;26708;50.304;19.028;2022-10-04T01:49:10;8.10;;;1.85;;
40981;SDS011;26708;50.304;19.028;2022-10-04T01:52:20;7.38;;;1.65;;
40981;SDS011;26708;50.304;19.028;2022-10-04T01:55:29;11.98;;;2.63;;
40981;SDS011;26708;50.304;19.028;2022-10-04T01:58:39;7.65;;;2.28;;
40981;SDS011;26708;50.304;19.028;2022-10-04T02:06:13;6.35;;;2.00;;
40981;SDS011;26708;50.304;19.028;2022-10-04T02:09:26;8.27;;;1.83;;
40981;SDS011;26708;50.304;19.028;2022-10-04T02:12:33;9.98;;;2.10;;
40981;SDS011;26708;50.304;19.028;2022-10-04T02:15:40;8.20;;;2.42;;
40981;SDS011;26708;50.304;19.028;2022-10-04T02:18:41;5.78;;;1.80;;
40981;SDS011;26708;50.304;19.028;2022-10-04T02:21:44;5.78;;;2.05;;
40981;SDS011;26708;50.304;19.028;2022-10-04T02:24:47;6.95;;;2.15;;
40981;SDS011;26708;50.304;19.028;2022-10-04T02:27:51;6.07;;;1.75;;
40981;SDS011;26708;50.304;19.028;2022-10-04T02:30:53;9.98;;;2.08;;
40981;SDS011;26708;50.304;19.028;2022-10-04T02:34:12;9.60;;;1.92;;
40981;SDS011;26708;50.304;19.028;2022-10-04T02:37:13;4.80;;;1.58;;
40981;SDS011;26708;50.304;19.028;2022-10-04T02:40:18;6.03;;;2.50;;
40981;SDS011;26708;50.304;19.028;2022-10-04T02:43:31;6.32;;;2.10;;
40981;SDS011;26708;50.304;19.028;2022-10-04T02:46:47;7.18;;;2.15;;
40981;SDS011;26708;50.304;19.028;2022-10-04T02:49:54;5.25;;;2.67;;
40981;SDS011;26708;50.304;19.028;2022-10-04T02:53:13;9.02;;;2.80;;
40981;SDS011;26708;50.304;19.028;2022-10-04T02:56:26;9.85;;;2.67;;
40981;SDS011;26708;50.304;19.028;2022-10-04T02:59:34;7.53;;;2.40;;
40981;SDS011;26708;50.304;19.028;2022-10-04T03:02:40;8.27;;;2.97;;
40981;SDS011;26708;50.304;19.028;2022-10-04T03:05:42;9.68;;;2.33;;
40981;SDS011;26708;50.304;19.028;2022-10-04T03:09:03;7.82;;;2.10;;
40981;SDS011;26708;50.304;19.028;2022-10-04T03:12:06;28.88;;;7.63;;
40981;SDS011;26708;50.304;19.028;2022-10-04T03:15:11;9.65;;;2.53;;
40981;SDS011;26708;50.304;19.028;2022-10-04T03:18:15;12.07;;;2.47;;
40981;SDS011;26708;50.304;19.028;2022-10-04T03:21:17;9.93;;;2.55;;
40981;SDS011;26708;50.304;19.028;2022-10-04T03:24:22;5.80;;;2.65;;
40981;SDS011;26708;50.304;19.028;2022-10-04T03:27:28;8.15;;;2.80;;
40981;SDS011;26708;50.304;19.028;2022-10-04T03:30:33;8.43;;;2.47;;
40981;SDS011;26708;50.304;19.028;2022-10-04T03:33:36;5.97;;;1.83;;
40981;SDS011;26708;50.304;19.028;2022-10-04T03:36:36;8.55;;;2.05;;
40981;SDS011;26708;50.304;19.028;2022-10-04T03:39:41;8.05;;;2.45;;
40981;SDS011;26708;50.304;19.028;2022-10-04T03:42:44;11.00;;;2.97;;
40981;SDS011;26708;50.304;19.028;2022-10-04T03:45:46;14.73;;;5.57;;
40981;SDS011;26708;50.304;19.028;2022-10-04T03:48:52;13.27;;;4.88;;
40981;SDS011;26708;50.304;19.028;2022-10-04T03:51:55;11.95;;;3.83;;
40981;SDS011;26708;50.304;19.028;2022-10-04T03:54:59;10.70;;;2.42;;
40981;SDS011;26708;50.304;19.028;2022-10-04T03:58:02;6.38;;;1.95;;
40981;SDS011;26708;50.304;19.028;2022-10-04T04:01:16;8.05;;;1.85;;
40981;SDS011;26708;50.304;19.028;2022-10-04T04:07:59;20.42;;;4.45;;
40981;SDS011;26708;50.304;19.028;2022-10-04T04:11:09;15.80;;;4.55;;
40981;SDS011;26708;50.304;19.028;2022-10-04T04:14:23;6.85;;;2.15;;
40981;SDS011;26708;50.304;19.028;2022-10-04T04:20:37;8.80;;;1.73;;
40981;SDS011;26708;50.304;19.028;2022-10-04T04:23:42;9.27;;;1.98;;
40981;SDS011;26708;50.304;19.028;2022-10-04T04:26:53;9.95;;;2.63;;
40981;SDS011;26708;50.304;19.028;2022-10-04T04:29:57;8.57;;;2.00;;
40981;SDS011;26708;50.304;19.028;2022-10-04T04:33:02;7.00;;;1.92;;
40981;SDS011;26708;50.304;19.028;2022-10-04T04:36:10;7.57;;;1.85;;
40981;SDS011;26708;50.304;19.028;2022-10-04T04:39:22;5.30;;;1.85;;
40981;SDS011;26708;50.304;19.028;2022-10-04T04:42:40;9.63;;;2.40;;
40981;SDS011;26708;50.304;19.028;2022-10-04T04:45:42;7.45;;;1.98;;
40981;SDS011;26708;50.304;19.028;2022-10-04T04:48:44;7.95;;;2.13;;
40981;SDS011;26708;50.304;19.028;2022-10-04T04:51:48;6.20;;;1.52;;
40981;SDS011;26708;50.304;19.028;2022-10-04T04:54:51;4.90;;;1.73;;
40981;SDS011;26708;50.304;19.028;2022-10-04T04:57:55;6.50;;;1.90;;
40981;SDS011;26708;50.304;19.028;2022-10-04T05:00:58;9.10;;;2.25;;
40981;SDS011;26708;50.304;19.028;2022-10-04T05:07:16;7.25;;;1.92;;
40981;SDS011;26708;50.304;19.028;2022-10-04T05:10:31;6.55;;;1.90;;
40981;SDS011;26708;50.304;19.028;2022-10-04T05:16:48;14.88;;;2.03;;
40981;SDS011;26708;50.304;19.028;2022-10-04T05:19:50;6.95;;;1.80;;
40981;SDS011;26708;50.304;19.028;2022-10-04T05:22:57;6.45;;;1.50;;
40981;SDS011;26708;50.304;19.028;2022-10-04T05:25:58;5.30;;;1.77;;
40981;SDS011;26708;50.304;19.028;2022-10-04T05:29:13;5.32;;;1.90;;
40981;SDS011;26708;50.304;19.028;2022-10-04T05:35:55;7.53;;;1.88;;
40981;SDS011;26708;50.304;19.028;2022-10-04T05:42:38;7.13;;;2.03;;
40981;SDS011;26708;50.304;19.028;2022-10-04T05:45:46;6.38;;;1.70;;
40981;SDS011;26708;50.304;19.028;2022-10-04T05:49:11;7.25;;;1.90;;
40981;SDS011;26708;50.304;19.028;2022-10-04T05:55:39;5.95;;;1.60;;
40981;SDS011;26708;50.304;19.028;2022-10-04T06:09:11;7.05;;;2.15;;
40981;SDS011;26708;50.304;19.028;2022-10-04T06:12:31;9.38;;;2.28;;
40981;SDS011;26708;50.304;19.028;2022-10-04T06:22:45;9.70;;;3.10;;
40981;SDS011;26708;50.304;19.028;2022-10-04T06:25:50;10.50;;;3.10;;
40981;SDS011;26708;50.304;19.028;2022-10-04T06:29:00;13.35;;;3.28;;
40981;SDS011;26708;50.304;19.028;2022-10-04T06:35:32;11.48;;;3.03;;
40981;SDS011;26708;50.304;19.028;2022-10-04T06:38:48;8.55;;;2.97;;
40981;SDS011;26708;50.304;19.028;2022-10-04T06:45:09;6.97;;;2.38;;
40981;SDS011;26708;50.304;19.028;2022-10-04T06:55:03;11.68;;;3.10;;
40981;SDS011;26708;50.304;19.028;2022-10-04T07:01:37;6.93;;;2.58;;
40981;SDS011;26708;50.304;19.028;2022-10-04T07:05:01;11.90;;;3.47;;
40981;SDS011;26708;50.304;19.028;2022-10-04T07:08:29;7.78;;;2.75;;
40981;SDS011;26708;50.304;19.028;2022-10-04T07:11:43;9.38;;;3.25;;
40981;SDS011;26708;50.304;19.028;2022-10-04T07:14:51;6.45;;;3.10;;
40981;SDS011;26708;50.304;19.028;2022-10-04T07:17:57;9.82;;;3.00;;
40981;SDS011;26708;50.304;19.028;2022-10-04T07:21:07;9.23;;;2.50;;
40981;SDS011;26708;50.304;19.028;2022-10-04T07:24:12;7.85;;;2.40;;
40981;SDS011;26708;50.304;19.028;2022-10-04T07:27:43;8.32;;;2.05;;
40981;SDS011;26708;50.304;19.028;2022-10-04T07:34:27;10.60;;;2.80;;
40981;SDS011;26708;50.304;19.028;2022-10-04T07:37:33;9.25;;;3.33;;
40981;SDS011;26708;50.304;19.028;2022-10-04T07:40:57;7.38;;;2.53;;
40981;SDS011;26708;50.304;19.028;2022-10-04T07:47:22;10.52;;;2.70;;
40981;SDS011;26708;50.304;19.028;2022-10-04T07:50:28;8.48;;;2.08;;
40981;SDS011;26708;50.304;19.028;2022-10-04T07:53:54;8.60;;;2.38;;
40981;SDS011;26708;50.304;19.028;2022-10-04T08:07:14;6.43;;;2.08;;
40981;SDS011;26708;50.304;19.028;2022-10-04T08:11:03;4.85;;;2.17;;
40981;SDS011;26708;50.304;19.028;2022-10-04T08:14:20;9.68;;;2.58;;
40981;SDS011;26708;50.304;19.028;2022-10-04T08:20:54;7.32;;;2.00;;
40981;SDS011;26708;50.304;19.028;2022-10-04T08:30:30;9.65;;;3.00;;
40981;SDS011;26708;50.304;19.028;2022-10-04T08:33:55;7.55;;;1.50;;
40981;SDS011;26708;50.304;19.028;2022-10-04T08:37:13;9.95;;;2.63;;
40981;SDS011;26708;50.304;19.028;2022-10-04T09:00:12;3.75;;;1.45;;
40981;SDS011;26708;50.304;19.028;2022-10-04T09:03:41;10.70;;;3.92;;
40981;SDS011;26708;50.304;19.028;2022-10-04T09:17:52;6.45;;;1.70;;
40981;SDS011;26708;50.304;19.028;2022-10-04T09:21:05;8.15;;;2.10;;
40981;SDS011;26708;50.304;19.028;2022-10-04T09:24:17;5.20;;;1.42;;
40981;SDS011;26708;50.304;19.028;2022-10-04T09:27:46;6.05;;;1.58;;
40981;SDS011;26708;50.304;19.028;2022-10-04T09:44:18;7.07;;;1.70;;
40981;SDS011;26708;50.304;19.028;2022-10-04T09:47:31;8.13;;;2.13;;
40981;SDS011;26708;50.304;19.028;2022-10-04T09:50:51;5.78;;;2.00;;
40981;SDS011;26708;50.304;19.028;2022-10-04T10:01:08;5.35;;;2.10;;
40981;SDS011;26708;50.304;19.028;2022-10-04T10:04:39;10.20;;;2.05;;
40981;SDS011;26708;50.304;19.028;2022-10-04T10:15:23;8.80;;;1.42;;
40981;SDS011;26708;50.304;19.028;2022-10-04T10:25:59;5.53;;;1.15;;
40981;SDS011;26708;50.304;19.028;2022-10-04T10:29:07;5.57;;;1.50;;
40981;SDS011;26708;50.304;19.028;2022-10-04T10:32:37;6.22;;;1.80;;
40981;SDS011;26708;50.304;19.028;2022-10-04T10:36:03;4.47;;;1.00;;
40981;SDS011;26708;50.304;19.028;2022-10-04T11:02:56;6.68;;;1.90;;
40981;SDS011;26708;50.304;19.028;2022-10-04T11:06:25;3.35;;;1.20;;
40981;SDS011;26708;50.304;19.028;2022-10-04T11:13:09;5.00;;;1.50;;
40981;SDS011;26708;50.304;19.028;2022-10-04T11:19:53;6.90;;;1.60;;
40981;SDS011;26708;50.304;19.028;2022-10-04T11:36:22;5.60;;;1.40;;
40981;SDS011;26708;50.304;19.028;2022-10-04T11:39:50;6.70;;;2.30;;
40981;SDS011;26708;50.304;19.028;2022-10-04T11:43:30;7.18;;;3.45;;
40981;SDS011;26708;50.304;19.028;2022-10-04T12:00:40;3.13;;;1.30;;
40981;SDS011;26708;50.304;19.028;2022-10-04T12:14:50;4.00;;;1.55;;
40981;SDS011;26708;50.304;19.028;2022-10-04T12:21:32;5.18;;;1.52;;
40981;SDS011;26708;50.304;19.028;2022-10-04T12:24:46;4.53;;;1.10;;
40981;SDS011;26708;50.304;19.028;2022-10-04T12:31:34;6.28;;;1.73;;
40981;SDS011;26708;50.304;19.028;2022-10-04T12:55:16;6.68;;;1.77;;
40981;SDS011;26708;50.304;19.028;2022-10-04T13:05:34;4.65;;;1.70;;
40981;SDS011;26708;50.304;19.028;2022-10-04T13:08:47;1.58;;;0.75;;
40981;SDS011;26708;50.304;19.028;2022-10-04T13:22:12;5.22;;;1.10;;
40981;SDS011;26708;50.304;19.028;2022-10-04T13:31:58;3.90;;;1.75;;
40981;SDS011;26708;50.304;19.028;2022-10-04T13:51:32;4.63;;;2.22;;
40981;SDS011;26708;50.304;19.028;2022-10-04T13:55:31;4.18;;;1.50;;
40981;SDS011;26708;50.304;19.028;2022-10-04T14:09:13;4.13;;;1.50;;
40981;SDS011;26708;50.304;19.028;2022-10-04T14:19:17;4.55;;;1.70;;
40981;SDS011;26708;50.304;19.028;2022-10-04T14:42:58;3.88;;;1.60;;
40981;SDS011;26708;50.304;19.028;2022-10-04T15:03:17;7.88;;;2.70;;
40981;SDS011;26708;50.304;19.028;2022-10-04T15:06:43;8.60;;;3.53;;
40981;SDS011;26708;50.304;19.028;2022-10-04T15:13:19;13.00;;;4.53;;
40981;SDS011;26708;50.304;19.028;2022-10-04T15:16:51;7.75;;;3.65;;
40981;SDS011;26708;50.304;19.028;2022-10-04T15:23:46;7.78;;;2.90;;
40981;SDS011;26708;50.304;19.028;2022-10-04T15:30:51;13.80;;;5.30;;
40981;SDS011;26708;50.304;19.028;2022-10-04T15:34:29;15.18;;;6.28;;
40981;SDS011;26708;50.304;19.028;2022-10-04T15:37:40;23.20;;;8.27;;
40981;SDS011;26708;50.304;19.028;2022-10-04T15:40:59;18.75;;;7.88;;
40981;SDS011;26708;50.304;19.028;2022-10-04T15:44:10;20.73;;;8.18;;
40981;SDS011;26708;50.304;19.028;2022-10-04T15:47:34;19.17;;;7.50;;
40981;SDS011;26708;50.304;19.028;2022-10-04T15:51:14;19.58;;;7.32;;
40981;SDS011;26708;50.304;19.028;2022-10-04T15:54:39;16.67;;;8.07;;
40981;SDS011;26708;50.304;19.028;2022-10-04T16:00:52;24.25;;;9.23;;
40981;SDS011;26708;50.304;19.028;2022-10-04T16:10:52;16.48;;;7.38;;
40981;SDS011;26708;50.304;19.028;2022-10-04T16:37:55;57.72;;;27.20;;
40981;SDS011;26708;50.304;19.028;2022-10-04T16:44:26;40.45;;;19.35;;
40981;SDS011;26708;50.304;19.028;2022-10-04T17:07:56;24.67;;;11.27;;
40981;SDS011;26708;50.304;19.028;2022-10-04T17:11:06;24.50;;;11.23;;
40981;SDS011;26708;50.304;19.028;2022-10-04T17:21:11;34.72;;;16.13;;
40981;SDS011;26708;50.304;19.028;2022-10-04T17:24:41;41.67;;;18.95;;
40981;SDS011;26708;50.304;19.028;2022-10-04T17:48:20;36.83;;;17.10;;
40981;SDS011;26708;50.304;19.028;2022-10-04T17:51:45;19.30;;;9.85;;
40981;SDS011;26708;50.304;19.028;2022-10-04T17:55:17;18.27;;;9.43;;
40981;SDS011;26708;50.304;19.028;2022-10-04T17:58:25;29.88;;;14.65;;
40981;SDS011;26708;50.304;19.028;2022-10-04T18:01:43;27.02;;;13.48;;
40981;SDS011;26708;50.304;19.028;2022-10-04T18:04:49;29.20;;;14.70;;
40981;SDS011;26708;50.304;19.028;2022-10-04T18:07:55;25.02;;;11.43;;
40981;SDS011;26708;50.304;19.028;2022-10-04T18:11:21;19.63;;;9.87;;
40981;SDS011;26708;50.304;19.028;2022-10-04T18:20:57;20.65;;;9.80;;
40981;SDS011;26708;50.304;19.028;2022-10-04T18:27:21;21.40;;;9.43;;
40981;SDS011;26708;50.304;19.028;2022-10-04T18:30:25;30.17;;;13.40;;
40981;SDS011;26708;50.304;19.028;2022-10-04T18:33:45;32.95;;;16.67;;
40981;SDS011;26708;50.304;19.028;2022-10-04T18:37:03;31.20;;;14.63;;
40981;SDS011;26708;50.304;19.028;2022-10-04T18:40:41;26.23;;;10.75;;
40981;SDS011;26708;50.304;19.028;2022-10-04T18:47:15;22.45;;;8.65;;
40981;SDS011;26708;50.304;19.028;2022-10-04T18:50:36;17.90;;;9.13;;
40981;SDS011;26708;50.304;19.028;2022-10-04T18:53:46;23.70;;;9.50;;
40981;SDS011;26708;50.304;19.028;2022-10-04T18:57:18;31.05;;;9.50;;
40981;SDS011;26708;50.304;19.028;2022-10-04T19:00:39;17.42;;;9.05;;
40981;SDS011;26708;50.304;19.028;2022-10-04T19:04:25;21.00;;;7.77;;
40981;SDS011;26708;50.304;19.028;2022-10-04T19:07:39;19.13;;;8.82;;
40981;SDS011;26708;50.304;19.028;2022-10-04T19:10:52;26.55;;;10.93;;
40981;SDS011;26708;50.304;19.028;2022-10-04T19:17:48;43.28;;;15.52;;
40981;SDS011;26708;50.304;19.028;2022-10-04T19:27:36;30.95;;;11.68;;
40981;SDS011;26708;50.304;19.028;2022-10-04T19:34:09;26.40;;;10.05;;
40981;SDS011;26708;50.304;19.028;2022-10-04T19:40:37;37.13;;;11.95;;
40981;SDS011;26708;50.304;19.028;2022-10-04T19:43:57;28.17;;;11.98;;
40981;SDS011;26708;50.304;19.028;2022-10-04T19:50:27;34.60;;;15.98;;
40981;SDS011;26708;50.304;19.028;2022-10-04T19:53:40;30.25;;;14.43;;
40981;SDS011;26708;50.304;19.028;2022-10-04T19:56:44;32.17;;;13.95;;
40981;SDS011;26708;50.304;19.028;2022-10-04T19:59:47;30.83;;;13.55;;
40981;SDS011;26708;50.304;19.028;2022-10-04T20:02:49;30.98;;;13.57;;
40981;SDS011;26708;50.304;19.028;2022-10-04T20:05:52;35.35;;;13.52;;
40981;SDS011;26708;50.304;19.028;2022-10-04T20:08:54;31.25;;;12.77;;
40981;SDS011;26708;50.304;19.028;2022-10-04T20:11:57;33.53;;;14.20;;
40981;SDS011;26708;50.304;19.028;2022-10-04T20:15:13;29.00;;;13.65;;
40981;SDS011;26708;50.304;19.028;2022-10-04T20:21:36;27.52;;;12.93;;
40981;SDS011;26708;50.304;19.028;2022-10-04T20:30:49;30.40;;;12.32;;
40981;SDS011;26708;50.304;19.028;2022-10-04T20:33:51;26.60;;;12.70;;
40981;SDS011;26708;50.304;19.028;2022-10-04T20:36:52;25.67;;;11.98;;
40981;SDS011;26708;50.304;19.028;2022-10-04T20:46:20;25.35;;;10.77;;
40981;SDS011;26708;50.304;19.028;2022-10-04T20:49:25;25.52;;;10.45;;
40981;SDS011;26708;50.304;19.028;2022-10-04T20:52:30;18.70;;;9.88;;
40981;SDS011;26708;50.304;19.028;2022-10-04T20:55:33;23.02;;;10.80;;
40981;SDS011;26708;50.304;19.028;2022-10-04T20:58:35;22.85;;;11.50;;
40981;SDS011;26708;50.304;19.028;2022-10-04T21:01:37;29.52;;;10.90;;
40981;SDS011;26708;50.304;19.028;2022-10-04T21:04:46;20.05;;;10.30;;
40981;SDS011;26708;50.304;19.028;2022-10-04T21:11:23;25.67;;;11.45;;
40981;SDS011;26708;50.304;19.028;2022-10-04T21:14:59;23.08;;;11.77;;
40981;SDS011;26708;50.304;19.028;2022-10-04T21:18:03;24.02;;;10.77;;
40981;SDS011;26708;50.304;19.028;2022-10-04T21:21:06;24.70;;;10.88;;
40981;SDS011;26708;50.304;19.028;2022-10-04T21:27:37;24.13;;;10.70;;
40981;SDS011;26708;50.304;19.028;2022-10-04T21:30:40;21.42;;;10.38;;
40981;SDS011;26708;50.304;19.028;2022-10-04T21:33:41;24.23;;;11.52;;
40981;SDS011;26708;50.304;19.028;2022-10-04T21:36:41;27.23;;;11.43;;
40981;SDS011;26708;50.304;19.028;2022-10-04T21:39:42;19.83;;;10.70;;
40981;SDS011;26708;50.304;19.028;2022-10-04T21:42:43;22.45;;;11.20;;
40981;SDS011;26708;50.304;19.028;2022-10-04T21:45:47;17.63;;;9.57;;
40981;SDS011;26708;50.304;19.028;2022-10-04T21:48:48;38.70;;;16.05;;
40981;SDS011;26708;50.304;19.028;2022-10-04T21:51:48;48.70;;;17.77;;
40981;SDS011;26708;50.304;19.028;2022-10-04T21:54:49;50.05;;;18.20;;
40981;SDS011;26708;50.304;19.028;2022-10-04T21:57:50;49.10;;;17.85;;
40981;SDS011;26708;50.304;19.028;2022-10-04T22:00:50;48.53;;;18.95;;
40981;SDS011;26708;50.304;19.028;2022-10-04T22:03:51;56.80;;;19.58;;
40981;SDS011;26708;50.304;19.028;2022-10-04T22:06:52;44.17;;;18.65;;
40981;SDS011;26708;50.304;19.028;2022-10-04T22:09:53;50.40;;;19.60;;
40981;SDS011;26708;50.304;19.028;2022-10-04T22:12:54;66.07;;;26.90;;
40981;SDS011;26708;50.304;19.028;2022-10-04T22:15:56;63.30;;;26.08;;
40981;SDS011;26708;50.304;19.028;2022-10-04T22:19:00;47.55;;;19.58;;
40981;SDS011;26708;50.304;19.028;2022-10-04T22:22:01;43.08;;;16.60;;
40981;SDS011;26708;50.304;19.028;2022-10-04T22:25:01;33.13;;;12.98;;
40981;SDS011;26708;50.304;19.028;2022-10-04T22:28:14;28.17;;;12.18;;
40981;SDS011;26708;50.304;19.028;2022-10-04T22:31:21;36.20;;;14.55;;
40981;SDS011;26708;50.304;19.028;2022-10-04T22:34:25;25.08;;;12.07;;
40981;SDS011;26708;50.304;19.028;2022-10-04T22:37:26;25.92;;;11.27;;
40981;SDS011;26708;50.304;19.028;2022-10-04T22:40:30;22.92;;;10.52;;
40981;SDS011;26708;50.304;19.028;2022-10-04T22:43:31;33.97;;;13.73;;
40981;SDS011;26708;50.304;19.028;2022-10-04T22:46:32;23.95;;;11.65;;
40981;SDS011;26708;50.304;19.028;2022-10-04T22:49:37;30.95;;;15.18;;
40981;SDS011;26708;50.304;19.028;2022-10-04T22:52:41;37.65;;;16.52;;
40981;SDS011;26708;50.304;19.028;2022-10-04T22:55:41;37.17;;;17.08;;
40981;SDS011;26708;50.304;19.028;2022-10-04T22:58:42;28.77;;;13.82;;
40981;SDS011;26708;50.304;19.028;2022-10-04T23:01:43;37.92;;;15.60;;
40981;SDS011;26708;50.304;19.028;2022-10-04T23:04:48;30.05;;;13.27;;
40981;SDS011;26708;50.304;19.028;2022-10-04T23:07:50;33.70;;;15.52;;
40981;SDS011;26708;50.304;19.028;2022-10-04T23:10:52;37.85;;;15.90;;
40981;SDS011;26708;50.304;19.028;2022-10-04T23:13:55;36.95;;;17.35;;
40981;SDS011;26708;50.304;19.028;2022-10-04T23:16:57;35.63;;;16.15;;
40981;SDS011;26708;50.304;19.028;2022-10-04T23:20:08;39.33;;;16.77;;
40981;SDS011;26708;50.304;19.028;2022-10-04T23:23:10;40.17;;;18.60;;
40981;SDS011;26708;50.304;19.028;2022-10-04T23:26:25;39.83;;;19.20;;
40981;SDS011;26708;50.304;19.028;2022-10-04T23:29:32;39.50;;;19.33;;
40981;SDS011;26708;50.304;19.028;2022-10-04T23:32:34;37.42;;;18.05;;
40981;SDS011;26708;50.304;19.028;2022-10-04T23:35:35;55.80;;;24.23;;
40981;SDS011;26708;50.304;19.028;2022-10-04T23:38:36;52.83;;;24.27;;
40981;SDS011;26708;50.304;19.028;2022-10-04T23:41:36;48.60;;;22.20;;
40981;SDS011;26708;50.304;19.028;2022-10-04T23:44:37;50.08;;;22.30;;
40981;SDS011;26708;50.304;19.028;2022-10-04T23:47:38;39.78;;;17.95;;
40981;SDS011;26708;50.304;19.028;2022-10-04T23:50:39;56.42;;;22.17;;
40981;SDS011;26708;50.304;19.028;2022-10-04T23:53:40;64.57;;;28.10;;
40981;SDS011;26708;50.304;19.028;2022-10-04T23:56:43;43.35;;;19.02;;
40981;SDS011;26708;50.304;19.028;2022-10-04T23:59:45;32.50;;;15.45;;
